Terminal Aerodrome Forecast
Issued by NWS Twin Cities, MN

Home | Current Version | Previous Version | Graphics & Text | Print | Product List | Glossary On
Versions: 1 2 3 4 5 6 7 8 9 10 11 12
435
FTUS43 KMPX 221120
TAFEAU
TAF
KEAU 221120Z 2212/2312 16005KT P6SM SCT150
     FM221500 18011KT P6SM SCT150
     FM230200 17007KT P6SM SCT150 WS020/20050KT
     FM230900 18007KT P6SM FEW250=

USA.gov is the U.S. government's official web portal to all federal, state and local government web resources and services.